sensor_id;sensor_type;location;lat;lon;timestamp;P1;durP1;ratioP1;P2;durP2;ratioP2
67819;SDS011;54618;52.018;5.576;2023-02-03T00:00:08;4.30;;;1.50;;
67819;SDS011;54618;52.018;5.576;2023-02-03T00:02:34;3.92;;;1.45;;
67819;SDS011;54618;52.018;5.576;2023-02-03T00:04:59;8.32;;;1.58;;
67819;SDS011;54618;52.018;5.576;2023-02-03T00:07:25;3.67;;;1.30;;
67819;SDS011;54618;52.018;5.576;2023-02-03T00:09:50;5.05;;;1.60;;
67819;SDS011;54618;52.018;5.576;2023-02-03T00:12:17;5.32;;;1.48;;
67819;SDS011;54618;52.018;5.576;2023-02-03T00:14:43;5.88;;;1.35;;
67819;SDS011;54618;52.018;5.576;2023-02-03T00:17:08;4.28;;;1.45;;
67819;SDS011;54618;52.018;5.576;2023-02-03T00:19:34;5.22;;;1.55;;
67819;SDS011;54618;52.018;5.576;2023-02-03T00:21:59;4.07;;;1.27;;
67819;SDS011;54618;52.018;5.576;2023-02-03T00:24:25;6.57;;;1.52;;
67819;SDS011;54618;52.018;5.576;2023-02-03T00:26:51;4.93;;;1.42;;
67819;SDS011;54618;52.018;5.576;2023-02-03T00:29:17;3.75;;;1.10;;
67819;SDS011;54618;52.018;5.576;2023-02-03T00:31:45;3.95;;;1.55;;
67819;SDS011;54618;52.018;5.576;2023-02-03T00:34:10;4.70;;;1.23;;
67819;SDS011;54618;52.018;5.576;2023-02-03T00:36:36;5.00;;;1.30;;
67819;SDS011;54618;52.018;5.576;2023-02-03T00:39:01;4.20;;;1.38;;
67819;SDS011;54618;52.018;5.576;2023-02-03T00:41:28;3.50;;;1.23;;
67819;SDS011;54618;52.018;5.576;2023-02-03T00:43:55;3.78;;;1.25;;
67819;SDS011;54618;52.018;5.576;2023-02-03T00:46:21;3.97;;;1.50;;
67819;SDS011;54618;52.018;5.576;2023-02-03T00:48:47;3.05;;;1.20;;
67819;SDS011;54618;52.018;5.576;2023-02-03T00:51:13;5.32;;;1.52;;
67819;SDS011;54618;52.018;5.576;2023-02-03T00:53:38;3.90;;;1.17;;
67819;SDS011;54618;52.018;5.576;2023-02-03T00:56:04;4.47;;;1.30;;
67819;SDS011;54618;52.018;5.576;2023-02-03T00:58:36;4.80;;;1.30;;
67819;SDS011;54618;52.018;5.576;2023-02-03T01:01:05;4.68;;;1.52;;
67819;SDS011;54618;52.018;5.576;2023-02-03T01:03:31;5.25;;;1.45;;
67819;SDS011;54618;52.018;5.576;2023-02-03T01:06:06;4.15;;;1.10;;
67819;SDS011;54618;52.018;5.576;2023-02-03T01:08:42;4.57;;;1.20;;
67819;SDS011;54618;52.018;5.576;2023-02-03T01:11:10;4.05;;;1.27;;
67819;SDS011;54618;52.018;5.576;2023-02-03T01:13:38;3.80;;;1.20;;
67819;SDS011;54618;52.018;5.576;2023-02-03T01:16:06;4.82;;;1.40;;
67819;SDS011;54618;52.018;5.576;2023-02-03T01:18:32;3.47;;;0.95;;
67819;SDS011;54618;52.018;5.576;2023-02-03T01:21:03;4.60;;;1.17;;
67819;SDS011;54618;52.018;5.576;2023-02-03T01:23:33;1.98;;;0.90;;
67819;SDS011;54618;52.018;5.576;2023-02-03T01:26:07;5.35;;;1.23;;
67819;SDS011;54618;52.018;5.576;2023-02-03T01:28:35;3.63;;;1.08;;
67819;SDS011;54618;52.018;5.576;2023-02-03T01:31:08;5.47;;;1.40;;
67819;SDS011;54618;52.018;5.576;2023-02-03T01:33:39;4.32;;;1.05;;
67819;SDS011;54618;52.018;5.576;2023-02-03T01:36:08;4.03;;;1.10;;
67819;SDS011;54618;52.018;5.576;2023-02-03T01:38:34;5.55;;;1.20;;
67819;SDS011;54618;52.018;5.576;2023-02-03T01:41:01;2.92;;;1.05;;
67819;SDS011;54618;52.018;5.576;2023-02-03T01:43:28;3.33;;;1.05;;
67819;SDS011;54618;52.018;5.576;2023-02-03T01:45:55;5.55;;;1.13;;
67819;SDS011;54618;52.018;5.576;2023-02-03T01:48:21;4.13;;;1.20;;
67819;SDS011;54618;52.018;5.576;2023-02-03T01:50:47;5.68;;;1.38;;
67819;SDS011;54618;52.018;5.576;2023-02-03T01:53:13;4.97;;;1.25;;
67819;SDS011;54618;52.018;5.576;2023-02-03T01:55:40;3.97;;;1.15;;
67819;SDS011;54618;52.018;5.576;2023-02-03T02:00:44;2.80;;;1.20;;
67819;SDS011;54618;52.018;5.576;2023-02-03T02:03:10;3.60;;;1.38;;
67819;SDS011;54618;52.018;5.576;2023-02-03T02:05:38;2.88;;;1.17;;
67819;SDS011;54618;52.018;5.576;2023-02-03T02:08:14;1.80;;;0.90;;
67819;SDS011;54618;52.018;5.576;2023-02-03T02:10:42;3.55;;;1.10;;
67819;SDS011;54618;52.018;5.576;2023-02-03T02:13:08;3.85;;;1.10;;
67819;SDS011;54618;52.018;5.576;2023-02-03T02:15:40;3.95;;;1.40;;
67819;SDS011;54618;52.018;5.576;2023-02-03T02:26:26;3.58;;;1.02;;
67819;SDS011;54618;52.018;5.576;2023-02-03T02:29:56;4.05;;;0.95;;
67819;SDS011;54618;52.018;5.576;2023-02-03T02:40:51;4.00;;;1.05;;
67819;SDS011;54618;52.018;5.576;2023-02-03T02:46:09;4.88;;;1.30;;
67819;SDS011;54618;52.018;5.576;2023-02-03T02:51:43;2.55;;;1.00;;
67819;SDS011;54618;52.018;5.576;2023-02-03T02:54:13;3.97;;;1.05;;
67819;SDS011;54618;52.018;5.576;2023-02-03T02:56:42;3.20;;;0.95;;
67819;SDS011;54618;52.018;5.576;2023-02-03T02:59:12;3.22;;;1.00;;
67819;SDS011;54618;52.018;5.576;2023-02-03T03:01:39;3.70;;;1.00;;
67819;SDS011;54618;52.018;5.576;2023-02-03T03:04:05;2.42;;;0.80;;
67819;SDS011;54618;52.018;5.576;2023-02-03T03:06:40;1.83;;;0.82;;
67819;SDS011;54618;52.018;5.576;2023-02-03T03:11:42;5.55;;;1.17;;
67819;SDS011;54618;52.018;5.576;2023-02-03T03:14:14;4.70;;;1.00;;
67819;SDS011;54618;52.018;5.576;2023-02-03T03:16:43;4.60;;;1.20;;
67819;SDS011;54618;52.018;5.576;2023-02-03T03:19:14;4.47;;;0.95;;
67819;SDS011;54618;52.018;5.576;2023-02-03T03:21:46;3.05;;;0.88;;
67819;SDS011;54618;52.018;5.576;2023-02-03T03:24:24;3.22;;;1.08;;
67819;SDS011;54618;52.018;5.576;2023-02-03T03:27:17;1.98;;;0.75;;
67819;SDS011;54618;52.018;5.576;2023-02-03T03:29:54;2.08;;;0.80;;
67819;SDS011;54618;52.018;5.576;2023-02-03T03:32:23;3.53;;;0.82;;
67819;SDS011;54618;52.018;5.576;2023-02-03T03:34:52;2.33;;;0.75;;
67819;SDS011;54618;52.018;5.576;2023-02-03T03:37:23;2.78;;;0.90;;
67819;SDS011;54618;52.018;5.576;2023-02-03T03:39:59;2.22;;;0.88;;
67819;SDS011;54618;52.018;5.576;2023-02-03T03:42:39;3.50;;;0.85;;
67819;SDS011;54618;52.018;5.576;2023-02-03T03:45:15;2.72;;;0.90;;
67819;SDS011;54618;52.018;5.576;2023-02-03T03:50:42;3.13;;;0.90;;
67819;SDS011;54618;52.018;5.576;2023-02-03T03:53:13;2.53;;;0.70;;
67819;SDS011;54618;52.018;5.576;2023-02-03T03:55:40;1.67;;;0.70;;
67819;SDS011;54618;52.018;5.576;2023-02-03T03:58:11;2.75;;;0.90;;
67819;SDS011;54618;52.018;5.576;2023-02-03T04:00:39;2.80;;;0.70;;
67819;SDS011;54618;52.018;5.576;2023-02-03T04:03:10;2.83;;;0.90;;
67819;SDS011;54618;52.018;5.576;2023-02-03T04:05:39;2.33;;;0.70;;
67819;SDS011;54618;52.018;5.576;2023-02-03T04:08:05;4.05;;;0.90;;
67819;SDS011;54618;52.018;5.576;2023-02-03T04:12:58;3.17;;;0.85;;
67819;SDS011;54618;52.018;5.576;2023-02-03T04:15:23;2.20;;;0.90;;
67819;SDS011;54618;52.018;5.576;2023-02-03T04:17:49;3.30;;;0.80;;
67819;SDS011;54618;52.018;5.576;2023-02-03T04:20:15;3.25;;;0.80;;
67819;SDS011;54618;52.018;5.576;2023-02-03T04:22:41;2.10;;;0.75;;
67819;SDS011;54618;52.018;5.576;2023-02-03T04:25:07;2.97;;;0.80;;
67819;SDS011;54618;52.018;5.576;2023-02-03T04:27:33;2.33;;;0.80;;
67819;SDS011;54618;52.018;5.576;2023-02-03T04:29:59;2.63;;;0.80;;
67819;SDS011;54618;52.018;5.576;2023-02-03T04:32:25;2.95;;;0.80;;
67819;SDS011;54618;52.018;5.576;2023-02-03T04:34:51;2.25;;;1.10;;
67819;SDS011;54618;52.018;5.576;2023-02-03T04:37:16;2.65;;;0.90;;
67819;SDS011;54618;52.018;5.576;2023-02-03T04:39:42;1.95;;;0.77;;
67819;SDS011;54618;52.018;5.576;2023-02-03T04:42:07;2.22;;;0.75;;
67819;SDS011;54618;52.018;5.576;2023-02-03T04:44:33;1.73;;;0.70;;
67819;SDS011;54618;52.018;5.576;2023-02-03T04:46:58;2.10;;;0.70;;
67819;SDS011;54618;52.018;5.576;2023-02-03T04:49:24;2.88;;;0.77;;
67819;SDS011;54618;52.018;5.576;2023-02-03T04:51:49;2.67;;;0.80;;
67819;SDS011;54618;52.018;5.576;2023-02-03T04:54:15;2.25;;;0.70;;
67819;SDS011;54618;52.018;5.576;2023-02-03T04:56:41;1.75;;;0.50;;
67819;SDS011;54618;52.018;5.576;2023-02-03T04:59:07;1.15;;;0.57;;
67819;SDS011;54618;52.018;5.576;2023-02-03T05:01:32;2.00;;;0.63;;
67819;SDS011;54618;52.018;5.576;2023-02-03T05:03:58;3.22;;;0.90;;
67819;SDS011;54618;52.018;5.576;2023-02-03T05:06:27;2.03;;;0.77;;
67819;SDS011;54618;52.018;5.576;2023-02-03T05:08:54;2.57;;;0.70;;
67819;SDS011;54618;52.018;5.576;2023-02-03T05:11:23;1.67;;;0.57;;
67819;SDS011;54618;52.018;5.576;2023-02-03T05:13:48;3.10;;;0.80;;
67819;SDS011;54618;52.018;5.576;2023-02-03T05:16:14;2.70;;;0.80;;
67819;SDS011;54618;52.018;5.576;2023-02-03T05:18:40;3.38;;;1.02;;
67819;SDS011;54618;52.018;5.576;2023-02-03T05:21:06;2.55;;;0.80;;
67819;SDS011;54618;52.018;5.576;2023-02-03T05:23:32;2.65;;;0.70;;
67819;SDS011;54618;52.018;5.576;2023-02-03T05:25:57;2.45;;;0.70;;
67819;SDS011;54618;52.018;5.576;2023-02-03T05:28:23;2.42;;;0.88;;
67819;SDS011;54618;52.018;5.576;2023-02-03T05:30:48;2.17;;;0.70;;
67819;SDS011;54618;52.018;5.576;2023-02-03T05:33:14;2.75;;;0.80;;
67819;SDS011;54618;52.018;5.576;2023-02-03T05:35:40;3.58;;;0.80;;
67819;SDS011;54618;52.018;5.576;2023-02-03T05:38:05;1.67;;;0.70;;
67819;SDS011;54618;52.018;5.576;2023-02-03T05:40:31;1.63;;;0.70;;
67819;SDS011;54618;52.018;5.576;2023-02-03T05:43:15;3.60;;;0.80;;
67819;SDS011;54618;52.018;5.576;2023-02-03T05:45:41;2.58;;;0.77;;
67819;SDS011;54618;52.018;5.576;2023-02-03T05:48:06;2.00;;;0.63;;
67819;SDS011;54618;52.018;5.576;2023-02-03T05:50:33;1.85;;;0.70;;
67819;SDS011;54618;52.018;5.576;2023-02-03T05:52:59;2.22;;;0.68;;
67819;SDS011;54618;52.018;5.576;2023-02-03T05:55:26;1.95;;;0.80;;
67819;SDS011;54618;52.018;5.576;2023-02-03T05:57:52;1.23;;;0.50;;
67819;SDS011;54618;52.018;5.576;2023-02-03T06:00:19;2.95;;;0.70;;
67819;SDS011;54618;52.018;5.576;2023-02-03T06:02:52;2.97;;;0.90;;
67819;SDS011;54618;52.018;5.576;2023-02-03T06:05:23;2.15;;;0.70;;
67819;SDS011;54618;52.018;5.576;2023-02-03T06:07:49;2.38;;;0.70;;
67819;SDS011;54618;52.018;5.576;2023-02-03T06:10:15;2.92;;;0.80;;
67819;SDS011;54618;52.018;5.576;2023-02-03T06:12:42;2.08;;;0.80;;
67819;SDS011;54618;52.018;5.576;2023-02-03T06:15:07;3.33;;;0.93;;
67819;SDS011;54618;52.018;5.576;2023-02-03T06:17:34;1.48;;;0.70;;
67819;SDS011;54618;52.018;5.576;2023-02-03T06:20:00;2.63;;;0.70;;
67819;SDS011;54618;52.018;5.576;2023-02-03T06:22:29;1.98;;;0.65;;
67819;SDS011;54618;52.018;5.576;2023-02-03T06:24:55;1.98;;;0.70;;
67819;SDS011;54618;52.018;5.576;2023-02-03T06:27:20;1.58;;;0.63;;
67819;SDS011;54618;52.018;5.576;2023-02-03T06:29:46;2.45;;;0.73;;
67819;SDS011;54618;52.018;5.576;2023-02-03T06:32:11;1.98;;;0.70;;
67819;SDS011;54618;52.018;5.576;2023-02-03T06:34:37;1.90;;;0.70;;
67819;SDS011;54618;52.018;5.576;2023-02-03T06:37:02;2.22;;;0.73;;
67819;SDS011;54618;52.018;5.576;2023-02-03T06:39:28;1.60;;;0.52;;
67819;SDS011;54618;52.018;5.576;2023-02-03T06:41:54;1.92;;;0.80;;
67819;SDS011;54618;52.018;5.576;2023-02-03T06:44:20;1.52;;;0.60;;
67819;SDS011;54618;52.018;5.576;2023-02-03T06:46:46;2.13;;;0.85;;
67819;SDS011;54618;52.018;5.576;2023-02-03T06:49:11;0.93;;;0.43;;
67819;SDS011;54618;52.018;5.576;2023-02-03T06:51:37;3.08;;;0.70;;
67819;SDS011;54618;52.018;5.576;2023-02-03T06:54:03;1.17;;;0.60;;
67819;SDS011;54618;52.018;5.576;2023-02-03T06:56:29;1.35;;;0.60;;
67819;SDS011;54618;52.018;5.576;2023-02-03T06:58:55;1.80;;;0.77;;
67819;SDS011;54618;52.018;5.576;2023-02-03T07:01:21;1.58;;;0.60;;
67819;SDS011;54618;52.018;5.576;2023-02-03T07:03:47;1.80;;;0.70;;
67819;SDS011;54618;52.018;5.576;2023-02-03T07:06:13;2.53;;;0.60;;
67819;SDS011;54618;52.018;5.576;2023-02-03T07:08:38;1.13;;;0.50;;
67819;SDS011;54618;52.018;5.576;2023-02-03T07:11:04;1.48;;;0.60;;
67819;SDS011;54618;52.018;5.576;2023-02-03T07:13:30;2.15;;;0.82;;
67819;SDS011;54618;52.018;5.576;2023-02-03T07:15:55;2.35;;;0.70;;
67819;SDS011;54618;52.018;5.576;2023-02-03T07:18:21;1.85;;;0.63;;
67819;SDS011;54618;52.018;5.576;2023-02-03T07:20:50;1.75;;;0.60;;
67819;SDS011;54618;52.018;5.576;2023-02-03T07:23:16;1.10;;;0.60;;
67819;SDS011;54618;52.018;5.576;2023-02-03T07:25:42;1.90;;;0.70;;
67819;SDS011;54618;52.018;5.576;2023-02-03T07:28:08;2.55;;;0.70;;
67819;SDS011;54618;52.018;5.576;2023-02-03T07:30:33;1.98;;;0.63;;
67819;SDS011;54618;52.018;5.576;2023-02-03T07:32:59;2.05;;;0.60;;
67819;SDS011;54618;52.018;5.576;2023-02-03T07:35:24;1.77;;;0.70;;
67819;SDS011;54618;52.018;5.576;2023-02-03T07:37:51;1.25;;;0.35;;
67819;SDS011;54618;52.018;5.576;2023-02-03T07:40:17;1.55;;;0.70;;
67819;SDS011;54618;52.018;5.576;2023-02-03T07:42:43;2.33;;;0.90;;
67819;SDS011;54618;52.018;5.576;2023-02-03T07:45:11;2.40;;;0.77;;
67819;SDS011;54618;52.018;5.576;2023-02-03T07:47:38;2.22;;;0.80;;
67819;SDS011;54618;52.018;5.576;2023-02-03T07:50:04;1.52;;;0.50;;
67819;SDS011;54618;52.018;5.576;2023-02-03T07:52:30;1.73;;;0.60;;
67819;SDS011;54618;52.018;5.576;2023-02-03T07:54:55;1.58;;;0.70;;
67819;SDS011;54618;52.018;5.576;2023-02-03T07:57:21;2.38;;;0.88;;
67819;SDS011;54618;52.018;5.576;2023-02-03T07:59:46;1.52;;;0.55;;
67819;SDS011;54618;52.018;5.576;2023-02-03T08:02:12;1.98;;;0.57;;
67819;SDS011;54618;52.018;5.576;2023-02-03T08:04:37;1.00;;;0.50;;
67819;SDS011;54618;52.018;5.576;2023-02-03T08:07:03;1.27;;;0.60;;
67819;SDS011;54618;52.018;5.576;2023-02-03T08:09:29;1.48;;;0.50;;
67819;SDS011;54618;52.018;5.576;2023-02-03T08:11:54;2.13;;;0.60;;
67819;SDS011;54618;52.018;5.576;2023-02-03T08:14:20;1.30;;;0.50;;
67819;SDS011;54618;52.018;5.576;2023-02-03T08:16:45;2.78;;;0.60;;
67819;SDS011;54618;52.018;5.576;2023-02-03T08:19:11;1.15;;;0.60;;
67819;SDS011;54618;52.018;5.576;2023-02-03T08:21:36;1.98;;;0.50;;
67819;SDS011;54618;52.018;5.576;2023-02-03T08:24:02;1.48;;;0.60;;
67819;SDS011;54618;52.018;5.576;2023-02-03T08:26:28;1.70;;;0.50;;
67819;SDS011;54618;52.018;5.576;2023-02-03T08:28:54;2.03;;;0.60;;
67819;SDS011;54618;52.018;5.576;2023-02-03T08:31:19;2.13;;;0.68;;
67819;SDS011;54618;52.018;5.576;2023-02-03T08:33:45;1.80;;;0.50;;
67819;SDS011;54618;52.018;5.576;2023-02-03T08:36:11;1.70;;;0.60;;
67819;SDS011;54618;52.018;5.576;2023-02-03T08:38:37;1.23;;;0.50;;
67819;SDS011;54618;52.018;5.576;2023-02-03T08:41:13;1.67;;;0.60;;
67819;SDS011;54618;52.018;5.576;2023-02-03T08:43:41;1.35;;;0.50;;
67819;SDS011;54618;52.018;5.576;2023-02-03T08:46:08;1.35;;;0.60;;
67819;SDS011;54618;52.018;5.576;2023-02-03T08:48:35;1.90;;;0.60;;
67819;SDS011;54618;52.018;5.576;2023-02-03T08:51:01;2.17;;;0.57;;
67819;SDS011;54618;52.018;5.576;2023-02-03T08:53:27;1.90;;;0.60;;
67819;SDS011;54618;52.018;5.576;2023-02-03T08:55:52;1.63;;;0.65;;
67819;SDS011;54618;52.018;5.576;2023-02-03T08:58:20;1.63;;;0.60;;
67819;SDS011;54618;52.018;5.576;2023-02-03T09:00:45;1.45;;;0.47;;
67819;SDS011;54618;52.018;5.576;2023-02-03T09:03:13;1.45;;;0.60;;
67819;SDS011;54618;52.018;5.576;2023-02-03T09:05:39;1.13;;;0.50;;
67819;SDS011;54618;52.018;5.576;2023-02-03T09:08:04;1.95;;;0.60;;
67819;SDS011;54618;52.018;5.576;2023-02-03T09:10:30;1.52;;;0.60;;
67819;SDS011;54618;52.018;5.576;2023-02-03T09:12:55;1.80;;;0.57;;
67819;SDS011;54618;52.018;5.576;2023-02-03T09:15:21;1.83;;;0.65;;
67819;SDS011;54618;52.018;5.576;2023-02-03T09:17:46;1.73;;;0.50;;
67819;SDS011;54618;52.018;5.576;2023-02-03T09:20:12;1.85;;;0.65;;
67819;SDS011;54618;52.018;5.576;2023-02-03T09:22:38;2.38;;;0.60;;
67819;SDS011;54618;52.018;5.576;2023-02-03T09:25:05;4.13;;;0.60;;
67819;SDS011;54618;52.018;5.576;2023-02-03T09:27:31;3.15;;;0.75;;
67819;SDS011;54618;52.018;5.576;2023-02-03T09:29:56;2.05;;;0.60;;
67819;SDS011;54618;52.018;5.576;2023-02-03T09:32:22;3.00;;;0.90;;
67819;SDS011;54618;52.018;5.576;2023-02-03T09:34:49;2.20;;;0.65;;
67819;SDS011;54618;52.018;5.576;2023-02-03T09:37:14;2.28;;;0.70;;
67819;SDS011;54618;52.018;5.576;2023-02-03T09:39:40;3.42;;;0.60;;
67819;SDS011;54618;52.018;5.576;2023-02-03T09:42:16;3.08;;;0.82;;
67819;SDS011;54618;52.018;5.576;2023-02-03T09:47:36;2.33;;;0.80;;
67819;SDS011;54618;52.018;5.576;2023-02-03T09:50:10;2.05;;;0.70;;
67819;SDS011;54618;52.018;5.576;2023-02-03T09:52:38;4.35;;;0.70;;
67819;SDS011;54618;52.018;5.576;2023-02-03T09:57:49;2.30;;;0.70;;
67819;SDS011;54618;52.018;5.576;2023-02-03T10:00:42;2.10;;;0.70;;
67819;SDS011;54618;52.018;5.576;2023-02-03T10:19:16;2.72;;;1.00;;
67819;SDS011;54618;52.018;5.576;2023-02-03T10:21:54;2.30;;;0.73;;
67819;SDS011;54618;52.018;5.576;2023-02-03T10:27:17;2.53;;;0.90;;
67819;SDS011;54618;52.018;5.576;2023-02-03T10:29:46;3.25;;;0.70;;
67819;SDS011;54618;52.018;5.576;2023-02-03T10:32:33;1.25;;;0.63;;
67819;SDS011;54618;52.018;5.576;2023-02-03T10:34:59;3.58;;;0.80;;
67819;SDS011;54618;52.018;5.576;2023-02-03T10:39:56;1.77;;;0.70;;
67819;SDS011;54618;52.018;5.576;2023-02-03T10:42:23;2.40;;;0.75;;
67819;SDS011;54618;52.018;5.576;2023-02-03T10:44:58;2.40;;;0.65;;
67819;SDS011;54618;52.018;5.576;2023-02-03T10:47:30;2.67;;;0.70;;
67819;SDS011;54618;52.018;5.576;2023-02-03T10:50:00;3.10;;;0.80;;
67819;SDS011;54618;52.018;5.576;2023-02-03T10:52:31;2.47;;;0.77;;
67819;SDS011;54618;52.018;5.576;2023-02-03T10:54:58;2.75;;;1.00;;
67819;SDS011;54618;52.018;5.576;2023-02-03T10:57:53;3.03;;;0.70;;
67819;SDS011;54618;52.018;5.576;2023-02-03T11:00:21;1.23;;;0.60;;
67819;SDS011;54618;52.018;5.576;2023-02-03T11:03:34;3.40;;;1.20;;
67819;SDS011;54618;52.018;5.576;2023-02-03T11:05:46;2.17;;;0.80;;
67819;SDS011;54618;52.018;5.576;2023-02-03T11:08:30;2.63;;;0.80;;
67819;SDS011;54618;52.018;5.576;2023-02-03T11:11:00;2.13;;;0.77;;
67819;SDS011;54618;52.018;5.576;2023-02-03T11:13:27;3.42;;;0.80;;
67819;SDS011;54618;52.018;5.576;2023-02-03T11:16:01;3.20;;;0.70;;
67819;SDS011;54618;52.018;5.576;2023-02-03T11:21:10;1.80;;;0.70;;
67819;SDS011;54618;52.018;5.576;2023-02-03T11:26:27;1.75;;;0.80;;
67819;SDS011;54618;52.018;5.576;2023-02-03T11:28:57;3.22;;;0.70;;
67819;SDS011;54618;52.018;5.576;2023-02-03T11:31:30;2.53;;;0.80;;
67819;SDS011;54618;52.018;5.576;2023-02-03T11:34:02;1.77;;;0.60;;
67819;SDS011;54618;52.018;5.576;2023-02-03T11:36:32;2.28;;;0.80;;
67819;SDS011;54618;52.018;5.576;2023-02-03T11:41:49;2.75;;;0.73;;
67819;SDS011;54618;52.018;5.576;2023-02-03T11:44:25;2.42;;;0.75;;
67819;SDS011;54618;52.018;5.576;2023-02-03T11:46:59;1.80;;;0.70;;
67819;SDS011;54618;52.018;5.576;2023-02-03T11:54:39;2.20;;;0.70;;
67819;SDS011;54618;52.018;5.576;2023-02-03T11:57:25;1.23;;;0.60;;
67819;SDS011;54618;52.018;5.576;2023-02-03T12:02:59;2.30;;;0.70;;
67819;SDS011;54618;52.018;5.576;2023-02-03T12:16:47;2.65;;;0.68;;
67819;SDS011;54618;52.018;5.576;2023-02-03T12:19:58;3.10;;;0.70;;
67819;SDS011;54618;52.018;5.576;2023-02-03T12:31:33;1.20;;;0.68;;
67819;SDS011;54618;52.018;5.576;2023-02-03T12:36:58;2.70;;;0.85;;
67819;SDS011;54618;52.018;5.576;2023-02-03T12:39:28;2.90;;;0.80;;
67819;SDS011;54618;52.018;5.576;2023-02-03T12:42:04;2.38;;;0.70;;
67819;SDS011;54618;52.018;5.576;2023-02-03T12:44:45;1.50;;;0.70;;
67819;SDS011;54618;52.018;5.576;2023-02-03T12:47:27;1.70;;;0.55;;
67819;SDS011;54618;52.018;5.576;2023-02-03T12:50:38;2.38;;;0.70;;
67819;SDS011;54618;52.018;5.576;2023-02-03T12:52:54;2.10;;;0.63;;
67819;SDS011;54618;52.018;5.576;2023-02-03T12:55:41;2.42;;;0.80;;
67819;SDS011;54618;52.018;5.576;2023-02-03T13:00:43;2.20;;;0.70;;
67819;SDS011;54618;52.018;5.576;2023-02-03T13:03:33;3.60;;;0.70;;
67819;SDS011;54618;52.018;5.576;2023-02-03T13:13:46;2.72;;;1.05;;
67819;SDS011;54618;52.018;5.576;2023-02-03T13:16:16;2.72;;;0.70;;
67819;SDS011;54618;52.018;5.576;2023-02-03T13:18:49;1.73;;;0.60;;
67819;SDS011;54618;52.018;5.576;2023-02-03T13:21:20;2.15;;;0.60;;
67819;SDS011;54618;52.018;5.576;2023-02-03T13:23:47;1.75;;;0.70;;
67819;SDS011;54618;52.018;5.576;2023-02-03T13:26:22;1.80;;;0.70;;
67819;SDS011;54618;52.018;5.576;2023-02-03T13:29:33;1.35;;;0.60;;
67819;SDS011;54618;52.018;5.576;2023-02-03T13:32:33;2.72;;;0.70;;
67819;SDS011;54618;52.018;5.576;2023-02-03T13:38:01;2.30;;;0.63;;
67819;SDS011;54618;52.018;5.576;2023-02-03T13:43:22;2.50;;;0.60;;
67819;SDS011;54618;52.018;5.576;2023-02-03T13:45:54;2.10;;;0.57;;
67819;SDS011;54618;52.018;5.576;2023-02-03T13:48:21;1.65;;;0.70;;
67819;SDS011;54618;52.018;5.576;2023-02-03T13:50:50;2.00;;;0.70;;
67819;SDS011;54618;52.018;5.576;2023-02-03T13:53:33;1.95;;;0.60;;
67819;SDS011;54618;52.018;5.576;2023-02-03T13:56:01;2.33;;;0.80;;
67819;SDS011;54618;52.018;5.576;2023-02-03T13:58:29;1.85;;;0.60;;
67819;SDS011;54618;52.018;5.576;2023-02-03T14:00:58;1.65;;;0.52;;
67819;SDS011;54618;52.018;5.576;2023-02-03T14:05:56;3.03;;;0.68;;
67819;SDS011;54618;52.018;5.576;2023-02-03T14:16:36;1.27;;;0.55;;
67819;SDS011;54618;52.018;5.576;2023-02-03T14:19:03;3.55;;;0.60;;
67819;SDS011;54618;52.018;5.576;2023-02-03T14:21:37;2.35;;;0.60;;
67819;SDS011;54618;52.018;5.576;2023-02-03T14:26:37;3.22;;;0.70;;
67819;SDS011;54618;52.018;5.576;2023-02-03T14:29:09;1.77;;;0.50;;
67819;SDS011;54618;52.018;5.576;2023-02-03T14:31:55;1.45;;;0.50;;
67819;SDS011;54618;52.018;5.576;2023-02-03T14:34:32;1.77;;;0.60;;
67819;SDS011;54618;52.018;5.576;2023-02-03T14:37:10;1.92;;;0.60;;
67819;SDS011;54618;52.018;5.576;2023-02-03T14:42:52;2.78;;;0.70;;
67819;SDS011;54618;52.018;5.576;2023-02-03T14:53:52;4.32;;;0.57;;
67819;SDS011;54618;52.018;5.576;2023-02-03T14:59:41;2.70;;;0.80;;
67819;SDS011;54618;52.018;5.576;2023-02-03T15:04:39;2.08;;;0.80;;
67819;SDS011;54618;52.018;5.576;2023-02-03T15:07:05;2.65;;;0.70;;
67819;SDS011;54618;52.018;5.576;2023-02-03T15:12:14;3.25;;;0.90;;
67819;SDS011;54618;52.018;5.576;2023-02-03T15:14:46;3.40;;;0.80;;
67819;SDS011;54618;52.018;5.576;2023-02-03T15:17:18;2.00;;;0.80;;
67819;SDS011;54618;52.018;5.576;2023-02-03T15:19:48;2.50;;;0.80;;
67819;SDS011;54618;52.018;5.576;2023-02-03T15:24:51;2.20;;;0.75;;
67819;SDS011;54618;52.018;5.576;2023-02-03T15:27:27;2.63;;;0.90;;
67819;SDS011;54618;52.018;5.576;2023-02-03T15:29:54;3.47;;;0.85;;
67819;SDS011;54618;52.018;5.576;2023-02-03T15:34:50;4.90;;;1.20;;
67819;SDS011;54618;52.018;5.576;2023-02-03T15:37:22;3.53;;;0.90;;
67819;SDS011;54618;52.018;5.576;2023-02-03T15:39:57;2.92;;;0.80;;
67819;SDS011;54618;52.018;5.576;2023-02-03T15:42:32;3.30;;;0.93;;
67819;SDS011;54618;52.018;5.576;2023-02-03T15:47:51;4.82;;;0.90;;
67819;SDS011;54618;52.018;5.576;2023-02-03T15:50:48;5.20;;;1.00;;
67819;SDS011;54618;52.018;5.576;2023-02-03T15:55:44;3.00;;;0.80;;
67819;SDS011;54618;52.018;5.576;2023-02-03T15:58:16;3.92;;;0.80;;
67819;SDS011;54618;52.018;5.576;2023-02-03T16:00:51;5.88;;;1.30;;
67819;SDS011;54618;52.018;5.576;2023-02-03T16:03:26;4.15;;;1.10;;
67819;SDS011;54618;52.018;5.576;2023-02-03T16:06:08;4.95;;;1.00;;
67819;SDS011;54618;52.018;5.576;2023-02-03T16:08:46;11.30;;;5.03;;
67819;SDS011;54618;52.018;5.576;2023-02-03T16:11:20;18.55;;;4.63;;
67819;SDS011;54618;52.018;5.576;2023-02-03T16:13:50;14.27;;;4.65;;
67819;SDS011;54618;52.018;5.576;2023-02-03T16:16:20;12.65;;;3.70;;
67819;SDS011;54618;52.018;5.576;2023-02-03T16:19:03;10.98;;;3.63;;
67819;SDS011;54618;52.018;5.576;2023-02-03T16:21:42;10.65;;;3.00;;
67819;SDS011;54618;52.018;5.576;2023-02-03T16:32:57;9.90;;;2.30;;
67819;SDS011;54618;52.018;5.576;2023-02-03T16:35:43;6.40;;;2.00;;
67819;SDS011;54618;52.018;5.576;2023-02-03T16:38:27;7.78;;;1.92;;
67819;SDS011;54618;52.018;5.576;2023-02-03T16:41:13;8.05;;;2.00;;
67819;SDS011;54618;52.018;5.576;2023-02-03T16:43:59;6.55;;;2.05;;
67819;SDS011;54618;52.018;5.576;2023-02-03T16:46:44;8.77;;;2.33;;
67819;SDS011;54618;52.018;5.576;2023-02-03T16:49:30;5.75;;;1.90;;
67819;SDS011;54618;52.018;5.576;2023-02-03T16:52:14;8.68;;;2.03;;
67819;SDS011;54618;52.018;5.576;2023-02-03T16:54:40;7.45;;;2.10;;
67819;SDS011;54618;52.018;5.576;2023-02-03T16:57:05;6.97;;;2.10;;
67819;SDS011;54618;52.018;5.576;2023-02-03T16:59:31;9.05;;;2.30;;
67819;SDS011;54618;52.018;5.576;2023-02-03T17:01:56;7.60;;;2.20;;
67819;SDS011;54618;52.018;5.576;2023-02-03T17:04:22;6.43;;;2.10;;
67819;SDS011;54618;52.018;5.576;2023-02-03T17:06:47;6.30;;;1.88;;
67819;SDS011;54618;52.018;5.576;2023-02-03T17:09:15;7.65;;;1.85;;
67819;SDS011;54618;52.018;5.576;2023-02-03T17:11:49;6.78;;;1.98;;
67819;SDS011;54618;52.018;5.576;2023-02-03T17:14:15;6.93;;;2.03;;
67819;SDS011;54618;52.018;5.576;2023-02-03T17:16:40;6.40;;;1.65;;
67819;SDS011;54618;52.018;5.576;2023-02-03T17:19:09;7.05;;;2.20;;
67819;SDS011;54618;52.018;5.576;2023-02-03T17:21:36;5.60;;;1.80;;
67819;SDS011;54618;52.018;5.576;2023-02-03T17:24:03;6.70;;;1.98;;
67819;SDS011;54618;52.018;5.576;2023-02-03T17:26:29;9.00;;;2.00;;
67819;SDS011;54618;52.018;5.576;2023-02-03T17:28:54;9.15;;;1.98;;
67819;SDS011;54618;52.018;5.576;2023-02-03T17:31:22;5.35;;;1.73;;
67819;SDS011;54618;52.018;5.576;2023-02-03T17:33:50;5.75;;;1.75;;
67819;SDS011;54618;52.018;5.576;2023-02-03T17:36:16;7.95;;;1.90;;
67819;SDS011;54618;52.018;5.576;2023-02-03T17:38:47;8.05;;;1.90;;
67819;SDS011;54618;52.018;5.576;2023-02-03T17:41:22;11.50;;;2.30;;
67819;SDS011;54618;52.018;5.576;2023-02-03T17:43:50;8.82;;;2.10;;
67819;SDS011;54618;52.018;5.576;2023-02-03T17:46:17;12.93;;;2.30;;
67819;SDS011;54618;52.018;5.576;2023-02-03T17:48:44;8.73;;;1.90;;
67819;SDS011;54618;52.018;5.576;2023-02-03T17:53:40;6.37;;;1.80;;